sensor_id;sensor_type;location;lat;lon;timestamp;P1;durP1;ratioP1;P2;durP2;ratioP2
33780;SDS011;20097;50.832;19.100;2023-02-19T00:02:36;7.57;;;5.15;;
33780;SDS011;20097;50.832;19.100;2023-02-19T00:07:40;10.10;;;5.68;;
33780;SDS011;20097;50.832;19.100;2023-02-19T00:12:45;7.97;;;4.72;;
33780;SDS011;20097;50.832;19.100;2023-02-19T00:17:51;10.50;;;6.00;;
33780;SDS011;20097;50.832;19.100;2023-02-19T00:22:55;10.27;;;6.90;;
33780;SDS011;20097;50.832;19.100;2023-02-19T00:27:59;10.93;;;6.28;;
33780;SDS011;20097;50.832;19.100;2023-02-19T00:33:05;12.80;;;5.55;;
33780;SDS011;20097;50.832;19.100;2023-02-19T00:38:10;10.15;;;6.00;;
33780;SDS011;20097;50.832;19.100;2023-02-19T00:43:15;12.57;;;6.70;;
33780;SDS011;20097;50.832;19.100;2023-02-19T00:48:20;10.43;;;6.57;;
33780;SDS011;20097;50.832;19.100;2023-02-19T00:53:25;10.00;;;6.00;;
33780;SDS011;20097;50.832;19.100;2023-02-19T00:58:29;9.05;;;5.70;;
33780;SDS011;20097;50.832;19.100;2023-02-19T01:03:35;9.82;;;5.82;;
33780;SDS011;20097;50.832;19.100;2023-02-19T01:08:41;9.05;;;5.97;;
33780;SDS011;20097;50.832;19.100;2023-02-19T01:13:46;8.40;;;5.47;;
33780;SDS011;20097;50.832;19.100;2023-02-19T01:18:52;10.85;;;6.50;;
33780;SDS011;20097;50.832;19.100;2023-02-19T01:23:58;9.88;;;6.05;;
33780;SDS011;20097;50.832;19.100;2023-02-19T01:29:03;10.55;;;6.35;;
33780;SDS011;20097;50.832;19.100;2023-02-19T01:34:10;10.20;;;4.80;;
33780;SDS011;20097;50.832;19.100;2023-02-19T01:39:15;8.57;;;5.22;;
33780;SDS011;20097;50.832;19.100;2023-02-19T01:50:22;9.50;;;5.65;;
33780;SDS011;20097;50.832;19.100;2023-02-19T01:55:31;8.35;;;5.85;;
33780;SDS011;20097;50.832;19.100;2023-02-19T02:00:37;8.10;;;5.57;;
33780;SDS011;20097;50.832;19.100;2023-02-19T02:05:45;9.05;;;6.03;;
33780;SDS011;20097;50.832;19.100;2023-02-19T02:10:56;8.10;;;5.20;;
33780;SDS011;20097;50.832;19.100;2023-02-19T02:21:34;9.50;;;6.20;;
33780;SDS011;20097;50.832;19.100;2023-02-19T02:26:58;9.65;;;6.70;;
33780;SDS011;20097;50.832;19.100;2023-02-19T02:32:25;10.52;;;6.43;;
33780;SDS011;20097;50.832;19.100;2023-02-19T02:37:36;7.90;;;5.65;;
33780;SDS011;20097;50.832;19.100;2023-02-19T02:42:45;7.90;;;5.75;;
33780;SDS011;20097;50.832;19.100;2023-02-19T02:47:52;6.95;;;4.82;;
33780;SDS011;20097;50.832;19.100;2023-02-19T02:53:01;5.00;;;3.17;;
33780;SDS011;20097;50.832;19.100;2023-02-19T02:58:28;4.82;;;2.95;;
33780;SDS011;20097;50.832;19.100;2023-02-19T03:03:36;3.45;;;2.50;;
33780;SDS011;20097;50.832;19.100;2023-02-19T03:08:45;4.32;;;2.63;;
33780;SDS011;20097;50.832;19.100;2023-02-19T03:13:57;3.85;;;2.65;;
33780;SDS011;20097;50.832;19.100;2023-02-19T03:19:28;4.35;;;2.88;;
33780;SDS011;20097;50.832;19.100;2023-02-19T03:24:38;5.53;;;3.35;;
33780;SDS011;20097;50.832;19.100;2023-02-19T03:30:08;4.22;;;2.97;;
33780;SDS011;20097;50.832;19.100;2023-02-19T03:35:19;4.78;;;2.92;;
33780;SDS011;20097;50.832;19.100;2023-02-19T03:40:28;4.68;;;2.80;;
33780;SDS011;20097;50.832;19.100;2023-02-19T03:45:38;4.57;;;2.72;;
33780;SDS011;20097;50.832;19.100;2023-02-19T03:56:08;3.63;;;2.95;;
33780;SDS011;20097;50.832;19.100;2023-02-19T04:01:20;4.00;;;2.85;;
33780;SDS011;20097;50.832;19.100;2023-02-19T04:06:31;4.43;;;3.13;;
33780;SDS011;20097;50.832;19.100;2023-02-19T04:11:38;4.53;;;3.30;;
33780;SDS011;20097;50.832;19.100;2023-02-19T04:16:45;4.65;;;3.70;;
33780;SDS011;20097;50.832;19.100;2023-02-19T04:21:58;5.55;;;3.95;;
33780;SDS011;20097;50.832;19.100;2023-02-19T04:27:04;4.88;;;3.55;;
33780;SDS011;20097;50.832;19.100;2023-02-19T04:32:11;8.02;;;5.07;;
33780;SDS011;20097;50.832;19.100;2023-02-19T04:37:17;8.50;;;5.03;;
33780;SDS011;20097;50.832;19.100;2023-02-19T04:42:22;6.07;;;4.88;;
33780;SDS011;20097;50.832;19.100;2023-02-19T04:47:26;4.63;;;4.10;;
33780;SDS011;20097;50.832;19.100;2023-02-19T04:57:39;4.07;;;3.67;;
33780;SDS011;20097;50.832;19.100;2023-02-19T05:02:43;7.00;;;2.97;;
33780;SDS011;20097;50.832;19.100;2023-02-19T05:07:49;4.13;;;2.70;;
33780;SDS011;20097;50.832;19.100;2023-02-19T05:12:53;4.30;;;2.58;;
33780;SDS011;20097;50.832;19.100;2023-02-19T05:17:59;3.55;;;2.50;;
33780;SDS011;20097;50.832;19.100;2023-02-19T05:23:05;6.45;;;2.05;;
33780;SDS011;20097;50.832;19.100;2023-02-19T05:28:09;3.55;;;2.38;;
33780;SDS011;20097;50.832;19.100;2023-02-19T05:33:20;2.90;;;1.98;;
33780;SDS011;20097;50.832;19.100;2023-02-19T05:38:27;2.35;;;1.70;;
33780;SDS011;20097;50.832;19.100;2023-02-19T05:43:32;2.90;;;2.17;;
33780;SDS011;20097;50.832;19.100;2023-02-19T05:48:36;2.58;;;1.67;;
33780;SDS011;20097;50.832;19.100;2023-02-19T05:53:43;1.73;;;1.58;;
33780;SDS011;20097;50.832;19.100;2023-02-19T05:58:49;2.00;;;1.80;;
33780;SDS011;20097;50.832;19.100;2023-02-19T06:03:54;2.33;;;1.67;;
33780;SDS011;20097;50.832;19.100;2023-02-19T06:09:00;1.60;;;1.50;;
33780;SDS011;20097;50.832;19.100;2023-02-19T06:14:05;1.70;;;1.55;;
33780;SDS011;20097;50.832;19.100;2023-02-19T06:19:09;2.92;;;2.05;;
33780;SDS011;20097;50.832;19.100;2023-02-19T06:24:15;3.20;;;1.97;;
33780;SDS011;20097;50.832;19.100;2023-02-19T06:29:21;2.78;;;1.70;;
33780;SDS011;20097;50.832;19.100;2023-02-19T06:34:25;2.58;;;1.50;;
33780;SDS011;20097;50.832;19.100;2023-02-19T06:39:31;1.77;;;1.33;;
33780;SDS011;20097;50.832;19.100;2023-02-19T06:44:35;2.50;;;1.77;;
33780;SDS011;20097;50.832;19.100;2023-02-19T06:49:40;2.28;;;1.67;;
33780;SDS011;20097;50.832;19.100;2023-02-19T06:54:45;1.98;;;1.25;;
33780;SDS011;20097;50.832;19.100;2023-02-19T06:59:50;2.70;;;1.35;;
33780;SDS011;20097;50.832;19.100;2023-02-19T07:04:54;3.53;;;1.08;;
33780;SDS011;20097;50.832;19.100;2023-02-19T07:10:00;1.40;;;1.30;;
33780;SDS011;20097;50.832;19.100;2023-02-19T07:15:05;3.15;;;1.48;;
33780;SDS011;20097;50.832;19.100;2023-02-19T07:20:10;3.60;;;1.90;;
33780;SDS011;20097;50.832;19.100;2023-02-19T07:25:17;2.80;;;2.20;;
33780;SDS011;20097;50.832;19.100;2023-02-19T07:30:23;3.30;;;2.40;;
33780;SDS011;20097;50.832;19.100;2023-02-19T07:35:28;3.10;;;2.15;;
33780;SDS011;20097;50.832;19.100;2023-02-19T07:40:33;4.88;;;3.00;;
33780;SDS011;20097;50.832;19.100;2023-02-19T07:45:38;4.15;;;2.42;;
33780;SDS011;20097;50.832;19.100;2023-02-19T07:50:49;4.45;;;2.63;;
33780;SDS011;20097;50.832;19.100;2023-02-19T07:55:58;2.80;;;1.90;;
33780;SDS011;20097;50.832;19.100;2023-02-19T08:01:08;3.03;;;2.30;;
33780;SDS011;20097;50.832;19.100;2023-02-19T08:06:16;3.15;;;1.75;;
33780;SDS011;20097;50.832;19.100;2023-02-19T08:11:22;3.47;;;2.50;;
33780;SDS011;20097;50.832;19.100;2023-02-19T08:16:47;3.70;;;1.85;;
33780;SDS011;20097;50.832;19.100;2023-02-19T08:21:52;6.70;;;2.88;;
33780;SDS011;20097;50.832;19.100;2023-02-19T08:26:57;4.32;;;2.67;;
33780;SDS011;20097;50.832;19.100;2023-02-19T08:32:02;3.25;;;2.10;;
33780;SDS011;20097;50.832;19.100;2023-02-19T08:37:07;5.40;;;2.90;;
33780;SDS011;20097;50.832;19.100;2023-02-19T08:42:13;2.70;;;1.98;;
33780;SDS011;20097;50.832;19.100;2023-02-19T08:47:17;4.30;;;2.10;;
33780;SDS011;20097;50.832;19.100;2023-02-19T08:52:21;4.53;;;2.00;;
33780;SDS011;20097;50.832;19.100;2023-02-19T08:57:27;5.45;;;2.58;;
33780;SDS011;20097;50.832;19.100;2023-02-19T09:02:32;4.15;;;2.10;;
33780;SDS011;20097;50.832;19.100;2023-02-19T09:07:37;5.30;;;2.33;;
33780;SDS011;20097;50.832;19.100;2023-02-19T09:12:42;4.18;;;2.20;;
33780;SDS011;20097;50.832;19.100;2023-02-19T09:17:49;5.65;;;2.25;;
33780;SDS011;20097;50.832;19.100;2023-02-19T09:22:57;6.60;;;3.00;;
33780;SDS011;20097;50.832;19.100;2023-02-19T09:28:03;5.90;;;2.38;;
33780;SDS011;20097;50.832;19.100;2023-02-19T09:33:08;4.40;;;3.08;;
33780;SDS011;20097;50.832;19.100;2023-02-19T09:38:12;5.47;;;2.28;;
33780;SDS011;20097;50.832;19.100;2023-02-19T09:43:19;5.30;;;1.92;;
33780;SDS011;20097;50.832;19.100;2023-02-19T09:48:25;6.22;;;2.05;;
33780;SDS011;20097;50.832;19.100;2023-02-19T09:58:45;4.00;;;1.77;;
33780;SDS011;20097;50.832;19.100;2023-02-19T10:03:53;4.32;;;1.67;;
33780;SDS011;20097;50.832;19.100;2023-02-19T10:08:59;6.18;;;2.20;;
33780;SDS011;20097;50.832;19.100;2023-02-19T10:14:29;6.93;;;1.77;;
33780;SDS011;20097;50.832;19.100;2023-02-19T10:19:38;4.70;;;1.92;;
33780;SDS011;20097;50.832;19.100;2023-02-19T10:24:43;6.47;;;2.35;;
33780;SDS011;20097;50.832;19.100;2023-02-19T10:29:54;4.45;;;2.08;;
33780;SDS011;20097;50.832;19.100;2023-02-19T10:35:07;5.05;;;2.03;;
33780;SDS011;20097;50.832;19.100;2023-02-19T10:40:14;3.50;;;1.70;;
33780;SDS011;20097;50.832;19.100;2023-02-19T10:45:23;5.28;;;2.05;;
33780;SDS011;20097;50.832;19.100;2023-02-19T10:50:36;4.47;;;2.17;;
33780;SDS011;20097;50.832;19.100;2023-02-19T10:55:44;8.60;;;2.97;;
33780;SDS011;20097;50.832;19.100;2023-02-19T11:00:51;6.97;;;2.83;;
33780;SDS011;20097;50.832;19.100;2023-02-19T11:06:15;9.32;;;3.38;;
33780;SDS011;20097;50.832;19.100;2023-02-19T11:11:26;6.53;;;2.95;;
33780;SDS011;20097;50.832;19.100;2023-02-19T11:16:40;6.07;;;3.42;;
33780;SDS011;20097;50.832;19.100;2023-02-19T11:21:47;5.22;;;2.60;;
33780;SDS011;20097;50.832;19.100;2023-02-19T11:31:57;6.30;;;3.05;;
33780;SDS011;20097;50.832;19.100;2023-02-19T11:37:27;3.63;;;2.03;;
33780;SDS011;20097;50.832;19.100;2023-02-19T11:42:35;3.13;;;1.70;;
33780;SDS011;20097;50.832;19.100;2023-02-19T11:53:34;5.13;;;2.83;;
33780;SDS011;20097;50.832;19.100;2023-02-19T11:58:54;5.57;;;3.38;;
33780;SDS011;20097;50.832;19.100;2023-02-19T12:10:02;6.15;;;3.33;;
33780;SDS011;20097;50.832;19.100;2023-02-19T12:20:56;7.57;;;4.32;;
33780;SDS011;20097;50.832;19.100;2023-02-19T12:26:18;5.50;;;3.05;;
33780;SDS011;20097;50.832;19.100;2023-02-19T12:42:44;8.15;;;4.05;;
33780;SDS011;20097;50.832;19.100;2023-02-19T12:48:04;7.32;;;4.40;;
33780;SDS011;20097;50.832;19.100;2023-02-19T12:53:23;7.45;;;4.85;;
33780;SDS011;20097;50.832;19.100;2023-02-19T12:58:38;10.75;;;6.18;;
33780;SDS011;20097;50.832;19.100;2023-02-19T13:03:49;9.93;;;5.45;;
33780;SDS011;20097;50.832;19.100;2023-02-19T13:09:16;10.50;;;5.43;;
33780;SDS011;20097;50.832;19.100;2023-02-19T13:14:26;12.02;;;6.55;;
33780;SDS011;20097;50.832;19.100;2023-02-19T13:19:36;15.55;;;6.40;;
33780;SDS011;20097;50.832;19.100;2023-02-19T13:24:42;10.70;;;6.22;;
33780;SDS011;20097;50.832;19.100;2023-02-19T13:29:52;13.07;;;7.65;;
33780;SDS011;20097;50.832;19.100;2023-02-19T13:35:20;10.48;;;6.22;;
33780;SDS011;20097;50.832;19.100;2023-02-19T13:40:52;14.68;;;5.05;;
33780;SDS011;20097;50.832;19.100;2023-02-19T13:46:01;13.00;;;5.87;;
33780;SDS011;20097;50.832;19.100;2023-02-19T13:56:49;11.18;;;4.15;;
33780;SDS011;20097;50.832;19.100;2023-02-19T14:02:30;7.57;;;3.67;;
33780;SDS011;20097;50.832;19.100;2023-02-19T14:07:50;9.95;;;4.07;;
33780;SDS011;20097;50.832;19.100;2023-02-19T14:12:58;11.85;;;4.70;;
33780;SDS011;20097;50.832;19.100;2023-02-19T14:18:19;9.27;;;3.75;;
33780;SDS011;20097;50.832;19.100;2023-02-19T14:23:49;11.75;;;4.95;;
33780;SDS011;20097;50.832;19.100;2023-02-19T14:28:57;8.80;;;4.38;;
33780;SDS011;20097;50.832;19.100;2023-02-19T14:34:05;8.77;;;4.10;;
33780;SDS011;20097;50.832;19.100;2023-02-19T14:39:21;6.07;;;3.88;;
33780;SDS011;20097;50.832;19.100;2023-02-19T14:44:30;10.32;;;5.13;;
33780;SDS011;20097;50.832;19.100;2023-02-19T14:49:48;9.23;;;4.97;;
33780;SDS011;20097;50.832;19.100;2023-02-19T14:54:58;10.95;;;5.07;;
33780;SDS011;20097;50.832;19.100;2023-02-19T15:00:20;12.38;;;4.22;;
33780;SDS011;20097;50.832;19.100;2023-02-19T15:05:28;10.38;;;4.97;;
33780;SDS011;20097;50.832;19.100;2023-02-19T15:10:35;12.52;;;4.30;;
33780;SDS011;20097;50.832;19.100;2023-02-19T15:15:42;7.55;;;3.70;;
33780;SDS011;20097;50.832;19.100;2023-02-19T15:20:48;10.25;;;3.85;;
33780;SDS011;20097;50.832;19.100;2023-02-19T15:26:01;14.15;;;4.45;;
33780;SDS011;20097;50.832;19.100;2023-02-19T15:31:10;8.23;;;4.07;;
33780;SDS011;20097;50.832;19.100;2023-02-19T15:36:21;13.30;;;5.35;;
33780;SDS011;20097;50.832;19.100;2023-02-19T15:41:31;25.60;;;16.13;;
33780;SDS011;20097;50.832;19.100;2023-02-19T15:46:38;12.02;;;6.70;;
33780;SDS011;20097;50.832;19.100;2023-02-19T15:51:47;17.88;;;8.40;;
33780;SDS011;20097;50.832;19.100;2023-02-19T15:56:57;12.93;;;5.95;;
33780;SDS011;20097;50.832;19.100;2023-02-19T16:02:09;14.90;;;6.28;;
33780;SDS011;20097;50.832;19.100;2023-02-19T16:07:22;17.13;;;6.82;;
33780;SDS011;20097;50.832;19.100;2023-02-19T16:12:29;20.50;;;9.13;;
33780;SDS011;20097;50.832;19.100;2023-02-19T16:17:35;33.35;;;16.02;;
33780;SDS011;20097;50.832;19.100;2023-02-19T16:22:40;11.35;;;6.65;;
33780;SDS011;20097;50.832;19.100;2023-02-19T16:38:37;13.48;;;7.13;;
33780;SDS011;20097;50.832;19.100;2023-02-19T16:43:42;18.65;;;5.63;;
33780;SDS011;20097;50.832;19.100;2023-02-19T16:48:48;11.80;;;4.85;;
33780;SDS011;20097;50.832;19.100;2023-02-19T16:53:53;13.77;;;7.40;;
33780;SDS011;20097;50.832;19.100;2023-02-19T16:58:58;14.77;;;5.45;;
33780;SDS011;20097;50.832;19.100;2023-02-19T17:04:05;20.30;;;7.35;;
33780;SDS011;20097;50.832;19.100;2023-02-19T17:09:13;32.88;;;16.55;;
33780;SDS011;20097;50.832;19.100;2023-02-19T17:14:18;22.38;;;12.05;;
33780;SDS011;20097;50.832;19.100;2023-02-19T17:19:24;12.43;;;5.75;;
33780;SDS011;20097;50.832;19.100;2023-02-19T17:24:29;18.05;;;7.55;;
33780;SDS011;20097;50.832;19.100;2023-02-19T17:29:33;20.73;;;7.78;;
33780;SDS011;20097;50.832;19.100;2023-02-19T17:34:39;19.10;;;6.20;;
33780;SDS011;20097;50.832;19.100;2023-02-19T17:39:44;20.00;;;11.00;;
33780;SDS011;20097;50.832;19.100;2023-02-19T17:44:48;23.58;;;10.50;;
33780;SDS011;20097;50.832;19.100;2023-02-19T17:49:56;23.42;;;9.18;;
33780;SDS011;20097;50.832;19.100;2023-02-19T17:55:00;18.95;;;9.00;;
33780;SDS011;20097;50.832;19.100;2023-02-19T18:00:05;12.77;;;6.20;;
33780;SDS011;20097;50.832;19.100;2023-02-19T18:05:15;19.60;;;9.02;;
33780;SDS011;20097;50.832;19.100;2023-02-19T18:10:20;21.30;;;9.45;;
33780;SDS011;20097;50.832;19.100;2023-02-19T18:15:27;24.27;;;10.60;;
33780;SDS011;20097;50.832;19.100;2023-02-19T18:20:32;26.30;;;12.38;;
33780;SDS011;20097;50.832;19.100;2023-02-19T18:25:38;23.65;;;10.75;;
33780;SDS011;20097;50.832;19.100;2023-02-19T18:30:42;30.27;;;12.75;;
33780;SDS011;20097;50.832;19.100;2023-02-19T18:40:52;16.98;;;8.45;;
33780;SDS011;20097;50.832;19.100;2023-02-19T18:45:59;23.23;;;9.48;;
33780;SDS011;20097;50.832;19.100;2023-02-19T18:56:12;22.55;;;8.93;;
33780;SDS011;20097;50.832;19.100;2023-02-19T19:01:16;18.67;;;8.13;;
33780;SDS011;20097;50.832;19.100;2023-02-19T19:06:22;20.75;;;7.78;;
33780;SDS011;20097;50.832;19.100;2023-02-19T19:11:27;18.02;;;7.05;;
33780;SDS011;20097;50.832;19.100;2023-02-19T19:16:31;21.50;;;6.93;;
33780;SDS011;20097;50.832;19.100;2023-02-19T19:21:38;18.30;;;7.90;;
33780;SDS011;20097;50.832;19.100;2023-02-19T19:26:42;29.10;;;9.90;;
33780;SDS011;20097;50.832;19.100;2023-02-19T19:31:48;18.65;;;7.38;;
33780;SDS011;20097;50.832;19.100;2023-02-19T19:41:58;18.70;;;8.32;;
33780;SDS011;20097;50.832;19.100;2023-02-19T19:47:02;14.13;;;7.57;;
33780;SDS011;20097;50.832;19.100;2023-02-19T19:52:08;20.23;;;11.95;;
33780;SDS011;20097;50.832;19.100;2023-02-19T19:57:14;21.80;;;10.35;;
33780;SDS011;20097;50.832;19.100;2023-02-19T20:02:18;17.27;;;9.40;;
33780;SDS011;20097;50.832;19.100;2023-02-19T20:07:25;17.67;;;9.57;;
33780;SDS011;20097;50.832;19.100;2023-02-19T20:12:30;24.80;;;13.40;;
33780;SDS011;20097;50.832;19.100;2023-02-19T20:17:35;21.80;;;12.07;;
33780;SDS011;20097;50.832;19.100;2023-02-19T20:22:41;34.67;;;13.52;;
33780;SDS011;20097;50.832;19.100;2023-02-19T20:27:46;29.35;;;15.07;;
33780;SDS011;20097;50.832;19.100;2023-02-19T20:32:50;24.75;;;10.93;;
33780;SDS011;20097;50.832;19.100;2023-02-19T20:37:57;27.23;;;9.80;;
33780;SDS011;20097;50.832;19.100;2023-02-19T20:43:01;17.52;;;8.90;;
33780;SDS011;20097;50.832;19.100;2023-02-19T20:48:06;25.95;;;10.07;;
33780;SDS011;20097;50.832;19.100;2023-02-19T20:53:12;22.30;;;9.25;;
33780;SDS011;20097;50.832;19.100;2023-02-19T20:58:16;17.92;;;8.88;;
33780;SDS011;20097;50.832;19.100;2023-02-19T21:03:22;22.90;;;10.00;;
33780;SDS011;20097;50.832;19.100;2023-02-19T21:08:28;19.92;;;8.65;;
33780;SDS011;20097;50.832;19.100;2023-02-19T21:13:33;17.65;;;7.93;;
33780;SDS011;20097;50.832;19.100;2023-02-19T21:23:43;18.75;;;7.82;;
33780;SDS011;20097;50.832;19.100;2023-02-19T21:28:49;17.17;;;8.15;;
33780;SDS011;20097;50.832;19.100;2023-02-19T21:33:54;18.70;;;6.80;;
33780;SDS011;20097;50.832;19.100;2023-02-19T21:38:59;16.80;;;6.88;;
33780;SDS011;20097;50.832;19.100;2023-02-19T21:44:04;16.42;;;6.03;;
33780;SDS011;20097;50.832;19.100;2023-02-19T21:54:16;16.92;;;6.35;;
33780;SDS011;20097;50.832;19.100;2023-02-19T21:59:23;17.63;;;6.15;;
33780;SDS011;20097;50.832;19.100;2023-02-19T22:04:27;15.68;;;5.93;;
33780;SDS011;20097;50.832;19.100;2023-02-19T22:09:33;15.32;;;5.85;;
33780;SDS011;20097;50.832;19.100;2023-02-19T22:14:39;14.82;;;5.55;;
33780;SDS011;20097;50.832;19.100;2023-02-19T22:24:49;19.40;;;6.73;;
33780;SDS011;20097;50.832;19.100;2023-02-19T22:29:54;16.60;;;5.65;;
33780;SDS011;20097;50.832;19.100;2023-02-19T22:34:58;14.52;;;5.57;;
33780;SDS011;20097;50.832;19.100;2023-02-19T22:40:04;11.65;;;4.90;;
33780;SDS011;20097;50.832;19.100;2023-02-19T22:45:10;10.10;;;4.70;;
33780;SDS011;20097;50.832;19.100;2023-02-19T22:50:16;10.73;;;6.45;;
33780;SDS011;20097;50.832;19.100;2023-02-19T22:55:24;16.05;;;5.95;;
33780;SDS011;20097;50.832;19.100;2023-02-19T23:00:29;17.02;;;5.50;;
33780;SDS011;20097;50.832;19.100;2023-02-19T23:05:33;15.35;;;7.10;;
33780;SDS011;20097;50.832;19.100;2023-02-19T23:10:39;19.08;;;7.07;;
33780;SDS011;20097;50.832;19.100;2023-02-19T23:15:43;19.58;;;7.05;;
33780;SDS011;20097;50.832;19.100;2023-02-19T23:20:48;20.52;;;6.60;;
33780;SDS011;20097;50.832;19.100;2023-02-19T23:25:54;18.50;;;5.80;;
33780;SDS011;20097;50.832;19.100;2023-02-19T23:30:59;15.43;;;5.13;;
33780;SDS011;20097;50.832;19.100;2023-02-19T23:36:03;14.63;;;5.40;;
33780;SDS011;20097;50.832;19.100;2023-02-19T23:41:10;17.80;;;6.25;;
33780;SDS011;20097;50.832;19.100;2023-02-19T23:46:16;13.07;;;5.05;;
33780;SDS011;20097;50.832;19.100;2023-02-19T23:51:21;14.82;;;4.68;;
33780;SDS011;20097;50.832;19.100;2023-02-19T23:56:27;13.18;;;5.97;;
